sensor_id;sensor_type;location;lat;lon;timestamp;temperature;humidity
12053;DHT22;6087;48.982;12.064;2023-05-10T00:01:27;15.20;11.40
12053;DHT22;6087;48.982;12.064;2023-05-10T00:03:54;15.10;11.50
12053;DHT22;6087;48.982;12.064;2023-05-10T00:06:26;15.10;11.60
12053;DHT22;6087;48.982;12.064;2023-05-10T00:08:56;15.10;11.50
12053;DHT22;6087;48.982;12.064;2023-05-10T00:11:29;15.10;11.70
12053;DHT22;6087;48.982;12.064;2023-05-10T00:13:56;15.10;11.70
12053;DHT22;6087;48.982;12.064;2023-05-10T00:16:26;15.10;11.90
12053;DHT22;6087;48.982;12.064;2023-05-10T00:18:53;15.10;12.80
12053;DHT22;6087;48.982;12.064;2023-05-10T00:21:19;15.10;12.40
12053;DHT22;6087;48.982;12.064;2023-05-10T00:23:48;15.10;12.80
12053;DHT22;6087;48.982;12.064;2023-05-10T00:26:14;15.10;12.70
12053;DHT22;6087;48.982;12.064;2023-05-10T00:28:42;15.10;12.60
12053;DHT22;6087;48.982;12.064;2023-05-10T00:31:08;15.10;12.70
12053;DHT22;6087;48.982;12.064;2023-05-10T00:33:35;15.10;12.70
12053;DHT22;6087;48.982;12.064;2023-05-10T00:36:03;15.10;12.70
12053;DHT22;6087;48.982;12.064;2023-05-10T00:38:29;15.10;13.00
12053;DHT22;6087;48.982;12.064;2023-05-10T00:40:58;15.00;13.10
12053;DHT22;6087;48.982;12.064;2023-05-10T00:43:24;15.00;13.30
12053;DHT22;6087;48.982;12.064;2023-05-10T00:45:52;15.00;13.80
12053;DHT22;6087;48.982;12.064;2023-05-10T00:48:19;15.00;14.00
12053;DHT22;6087;48.982;12.064;2023-05-10T00:50:46;15.00;14.40
12053;DHT22;6087;48.982;12.064;2023-05-10T00:53:14;15.00;14.30
12053;DHT22;6087;48.982;12.064;2023-05-10T00:55:41;15.00;14.50
12053;DHT22;6087;48.982;12.064;2023-05-10T00:58:09;14.90;14.60
12053;DHT22;6087;48.982;12.064;2023-05-10T01:00:37;14.90;14.70
12053;DHT22;6087;48.982;12.064;2023-05-10T01:03:04;14.90;14.80
12053;DHT22;6087;48.982;12.064;2023-05-10T01:05:31;14.90;15.10
12053;DHT22;6087;48.982;12.064;2023-05-10T01:07:58;14.90;15.90
12053;DHT22;6087;48.982;12.064;2023-05-10T01:10:25;14.90;15.30
12053;DHT22;6087;48.982;12.064;2023-05-10T01:12:52;14.90;15.30
12053;DHT22;6087;48.982;12.064;2023-05-10T01:15:20;14.90;15.50
12053;DHT22;6087;48.982;12.064;2023-05-10T01:17:48;14.90;15.50
12053;DHT22;6087;48.982;12.064;2023-05-10T01:20:15;14.90;15.90
12053;DHT22;6087;48.982;12.064;2023-05-10T01:26:24;14.90;16.50
12053;DHT22;6087;48.982;12.064;2023-05-10T01:29:24;14.80;16.20
12053;DHT22;6087;48.982;12.064;2023-05-10T01:32:26;14.80;17.00
12053;DHT22;6087;48.982;12.064;2023-05-10T01:35:00;14.80;16.80
12053;DHT22;6087;48.982;12.064;2023-05-10T01:37:36;14.80;16.90
12053;DHT22;6087;48.982;12.064;2023-05-10T01:40:17;14.80;17.10
12053;DHT22;6087;48.982;12.064;2023-05-10T01:42:49;14.80;17.30
12053;DHT22;6087;48.982;12.064;2023-05-10T01:45:24;14.80;17.70
12053;DHT22;6087;48.982;12.064;2023-05-10T01:48:02;14.80;17.90
12053;DHT22;6087;48.982;12.064;2023-05-10T01:50:31;14.80;18.50
12053;DHT22;6087;48.982;12.064;2023-05-10T01:53:00;14.80;18.60
12053;DHT22;6087;48.982;12.064;2023-05-10T01:55:32;14.80;19.00
12053;DHT22;6087;48.982;12.064;2023-05-10T01:58:03;14.80;19.00
12053;DHT22;6087;48.982;12.064;2023-05-10T02:00:32;14.80;19.60
12053;DHT22;6087;48.982;12.064;2023-05-10T02:03:05;14.80;20.00
12053;DHT22;6087;48.982;12.064;2023-05-10T02:05:33;14.70;20.30
12053;DHT22;6087;48.982;12.064;2023-05-10T02:08:07;14.70;20.80
12053;DHT22;6087;48.982;12.064;2023-05-10T02:10:35;14.70;21.10
12053;DHT22;6087;48.982;12.064;2023-05-10T02:13:06;14.70;21.60
12053;DHT22;6087;48.982;12.064;2023-05-10T02:15:34;14.70;22.40
12053;DHT22;6087;48.982;12.064;2023-05-10T02:18:04;14.70;22.60
12053;DHT22;6087;48.982;12.064;2023-05-10T02:20:32;14.70;23.00
12053;DHT22;6087;48.982;12.064;2023-05-10T02:23:00;14.70;23.20
12053;DHT22;6087;48.982;12.064;2023-05-10T02:25:28;14.70;23.90
12053;DHT22;6087;48.982;12.064;2023-05-10T02:27:57;14.70;25.00
12053;DHT22;6087;48.982;12.064;2023-05-10T02:30:24;14.70;25.50
12053;DHT22;6087;48.982;12.064;2023-05-10T02:32:52;14.60;26.10
12053;DHT22;6087;48.982;12.064;2023-05-10T02:35:21;14.60;27.10
12053;DHT22;6087;48.982;12.064;2023-05-10T02:37:49;14.60;28.60
12053;DHT22;6087;48.982;12.064;2023-05-10T02:40:17;14.60;30.10
12053;DHT22;6087;48.982;12.064;2023-05-10T02:42:44;14.60;30.90
12053;DHT22;6087;48.982;12.064;2023-05-10T02:45:13;14.60;32.80
12053;DHT22;6087;48.982;12.064;2023-05-10T02:47:41;14.60;33.60
12053;DHT22;6087;48.982;12.064;2023-05-10T02:50:09;14.50;35.50
12053;DHT22;6087;48.982;12.064;2023-05-10T02:52:46;14.50;36.70
12053;DHT22;6087;48.982;12.064;2023-05-10T02:55:16;14.50;38.30
12053;DHT22;6087;48.982;12.064;2023-05-10T02:57:52;14.50;39.20
12053;DHT22;6087;48.982;12.064;2023-05-10T03:00:19;14.50;40.00
12053;DHT22;6087;48.982;12.064;2023-05-10T03:02:46;14.50;40.90
12053;DHT22;6087;48.982;12.064;2023-05-10T03:05:13;14.40;43.40
12053;DHT22;6087;48.982;12.064;2023-05-10T03:07:46;14.40;45.10
12053;DHT22;6087;48.982;12.064;2023-05-10T03:10:13;14.40;46.50
12053;DHT22;6087;48.982;12.064;2023-05-10T03:12:52;14.40;49.40
12053;DHT22;6087;48.982;12.064;2023-05-10T03:15:31;14.40;51.20
12053;DHT22;6087;48.982;12.064;2023-05-10T03:18:04;14.30;54.50
12053;DHT22;6087;48.982;12.064;2023-05-10T03:20:36;14.30;56.90
12053;DHT22;6087;48.982;12.064;2023-05-10T03:23:11;14.30;58.40
12053;DHT22;6087;48.982;12.064;2023-05-10T03:25:40;14.30;60.70
12053;DHT22;6087;48.982;12.064;2023-05-10T03:28:09;14.20;63.60
12053;DHT22;6087;48.982;12.064;2023-05-10T03:30:37;14.20;65.10
12053;DHT22;6087;48.982;12.064;2023-05-10T03:33:05;14.20;67.80
12053;DHT22;6087;48.982;12.064;2023-05-10T03:35:32;14.20;70.20
12053;DHT22;6087;48.982;12.064;2023-05-10T03:37:59;14.10;72.70
12053;DHT22;6087;48.982;12.064;2023-05-10T03:40:28;14.10;73.00
12053;DHT22;6087;48.982;12.064;2023-05-10T03:42:57;14.00;75.20
12053;DHT22;6087;48.982;12.064;2023-05-10T03:45:23;14.00;77.10
12053;DHT22;6087;48.982;12.064;2023-05-10T03:47:50;14.00;77.50
12053;DHT22;6087;48.982;12.064;2023-05-10T03:50:17;14.00;80.00
12053;DHT22;6087;48.982;12.064;2023-05-10T03:52:45;14.00;82.20
12053;DHT22;6087;48.982;12.064;2023-05-10T03:55:12;13.90;84.10
12053;DHT22;6087;48.982;12.064;2023-05-10T03:57:40;13.90;86.70
12053;DHT22;6087;48.982;12.064;2023-05-10T04:00:08;13.90;87.40
12053;DHT22;6087;48.982;12.064;2023-05-10T04:02:35;13.90;87.80
12053;DHT22;6087;48.982;12.064;2023-05-10T04:05:02;13.90;88.80
12053;DHT22;6087;48.982;12.064;2023-05-10T04:07:29;13.90;89.40
12053;DHT22;6087;48.982;12.064;2023-05-10T04:09:55;13.90;90.30
12053;DHT22;6087;48.982;12.064;2023-05-10T04:12:22;13.90;90.90
12053;DHT22;6087;48.982;12.064;2023-05-10T04:14:51;13.90;91.30
12053;DHT22;6087;48.982;12.064;2023-05-10T04:17:18;13.90;91.90
12053;DHT22;6087;48.982;12.064;2023-05-10T04:19:47;13.90;92.70
12053;DHT22;6087;48.982;12.064;2023-05-10T04:22:14;13.80;92.60
12053;DHT22;6087;48.982;12.064;2023-05-10T04:24:41;13.80;92.50
12053;DHT22;6087;48.982;12.064;2023-05-10T04:27:08;13.80;92.90
12053;DHT22;6087;48.982;12.064;2023-05-10T04:29:35;13.80;92.80
12053;DHT22;6087;48.982;12.064;2023-05-10T04:32:06;13.70;94.00
12053;DHT22;6087;48.982;12.064;2023-05-10T04:34:33;13.70;94.30
12053;DHT22;6087;48.982;12.064;2023-05-10T04:37:03;13.70;94.50
12053;DHT22;6087;48.982;12.064;2023-05-10T04:39:29;13.70;94.60
12053;DHT22;6087;48.982;12.064;2023-05-10T04:42:02;13.70;95.40
12053;DHT22;6087;48.982;12.064;2023-05-10T04:44:31;13.70;95.60
12053;DHT22;6087;48.982;12.064;2023-05-10T04:46:58;13.70;95.80
12053;DHT22;6087;48.982;12.064;2023-05-10T04:49:26;13.70;96.60
12053;DHT22;6087;48.982;12.064;2023-05-10T04:51:53;13.70;97.60
12053;DHT22;6087;48.982;12.064;2023-05-10T04:54:20;13.60;97.40
12053;DHT22;6087;48.982;12.064;2023-05-10T04:56:46;13.60;97.50
12053;DHT22;6087;48.982;12.064;2023-05-10T04:59:13;13.60;97.50
12053;DHT22;6087;48.982;12.064;2023-05-10T05:01:40;13.60;97.10
12053;DHT22;6087;48.982;12.064;2023-05-10T05:04:07;13.60;97.90
12053;DHT22;6087;48.982;12.064;2023-05-10T05:06:35;13.60;98.30
12053;DHT22;6087;48.982;12.064;2023-05-10T05:09:02;13.60;98.10
12053;DHT22;6087;48.982;12.064;2023-05-10T05:11:29;13.60;98.10
12053;DHT22;6087;48.982;12.064;2023-05-10T05:13:56;13.60;97.50
12053;DHT22;6087;48.982;12.064;2023-05-10T05:16:24;13.60;97.80
12053;DHT22;6087;48.982;12.064;2023-05-10T05:18:51;13.50;97.90
12053;DHT22;6087;48.982;12.064;2023-05-10T05:21:19;13.50;97.70
12053;DHT22;6087;48.982;12.064;2023-05-10T05:23:48;13.50;98.60
12053;DHT22;6087;48.982;12.064;2023-05-10T05:26:15;13.50;98.90
12053;DHT22;6087;48.982;12.064;2023-05-10T05:28:42;13.50;99.20
12053;DHT22;6087;48.982;12.064;2023-05-10T05:31:08;13.50;98.80
12053;DHT22;6087;48.982;12.064;2023-05-10T05:33:35;13.50;99.40
12053;DHT22;6087;48.982;12.064;2023-05-10T05:36:03;13.50;99.60
12053;DHT22;6087;48.982;12.064;2023-05-10T05:38:30;13.40;99.70
12053;DHT22;6087;48.982;12.064;2023-05-10T05:40:59;13.40;99.90
12053;DHT22;6087;48.982;12.064;2023-05-10T05:43:26;13.40;99.90
12053;DHT22;6087;48.982;12.064;2023-05-10T05:45:53;13.40;99.90
12053;DHT22;6087;48.982;12.064;2023-05-10T05:48:20;13.50;99.90
12053;DHT22;6087;48.982;12.064;2023-05-10T05:50:49;13.50;99.90
12053;DHT22;6087;48.982;12.064;2023-05-10T05:53:18;13.50;99.90
12053;DHT22;6087;48.982;12.064;2023-05-10T05:55:51;13.50;99.90
12053;DHT22;6087;48.982;12.064;2023-05-10T05:58:20;13.50;99.90
12053;DHT22;6087;48.982;12.064;2023-05-10T06:00:48;13.50;99.90
12053;DHT22;6087;48.982;12.064;2023-05-10T06:03:14;13.40;99.90
12053;DHT22;6087;48.982;12.064;2023-05-10T06:05:41;13.40;99.90
12053;DHT22;6087;48.982;12.064;2023-05-10T06:08:08;13.40;99.90
12053;DHT22;6087;48.982;12.064;2023-05-10T06:10:38;13.50;99.90
12053;DHT22;6087;48.982;12.064;2023-05-10T06:13:05;13.50;99.90
12053;DHT22;6087;48.982;12.064;2023-05-10T06:15:33;13.50;99.90
12053;DHT22;6087;48.982;12.064;2023-05-10T06:18:00;13.50;99.90
12053;DHT22;6087;48.982;12.064;2023-05-10T06:20:27;13.50;99.90
12053;DHT22;6087;48.982;12.064;2023-05-10T06:22:54;13.50;99.90
12053;DHT22;6087;48.982;12.064;2023-05-10T06:25:21;13.60;99.90
12053;DHT22;6087;48.982;12.064;2023-05-10T06:27:47;13.60;99.90
12053;DHT22;6087;48.982;12.064;2023-05-10T06:30:15;13.60;99.90
12053;DHT22;6087;48.982;12.064;2023-05-10T06:32:43;13.60;99.90
12053;DHT22;6087;48.982;12.064;2023-05-10T06:35:10;13.60;99.90
12053;DHT22;6087;48.982;12.064;2023-05-10T06:37:37;13.70;99.90
12053;DHT22;6087;48.982;12.064;2023-05-10T06:40:05;13.70;99.90
12053;DHT22;6087;48.982;12.064;2023-05-10T06:42:32;13.70;99.90
12053;DHT22;6087;48.982;12.064;2023-05-10T06:44:59;13.80;99.90
12053;DHT22;6087;48.982;12.064;2023-05-10T06:47:26;13.80;99.90
12053;DHT22;6087;48.982;12.064;2023-05-10T06:49:54;13.80;99.90
12053;DHT22;6087;48.982;12.064;2023-05-10T06:52:21;13.80;99.90
12053;DHT22;6087;48.982;12.064;2023-05-10T06:54:48;13.90;99.90
12053;DHT22;6087;48.982;12.064;2023-05-10T06:57:15;13.90;99.90
12053;DHT22;6087;48.982;12.064;2023-05-10T06:59:43;13.90;99.90
12053;DHT22;6087;48.982;12.064;2023-05-10T07:02:10;14.00;99.90
12053;DHT22;6087;48.982;12.064;2023-05-10T07:04:37;14.00;99.90
12053;DHT22;6087;48.982;12.064;2023-05-10T07:07:05;14.00;99.90
12053;DHT22;6087;48.982;12.064;2023-05-10T07:09:32;14.00;99.90
12053;DHT22;6087;48.982;12.064;2023-05-10T07:11:59;14.00;99.90
12053;DHT22;6087;48.982;12.064;2023-05-10T07:14:30;14.10;99.90
12053;DHT22;6087;48.982;12.064;2023-05-10T07:16:56;14.10;99.90
12053;DHT22;6087;48.982;12.064;2023-05-10T07:19:26;14.10;99.90
12053;DHT22;6087;48.982;12.064;2023-05-10T07:21:55;14.20;99.90
12053;DHT22;6087;48.982;12.064;2023-05-10T07:24:23;14.20;99.90
12053;DHT22;6087;48.982;12.064;2023-05-10T07:27:00;14.20;99.90
12053;DHT22;6087;48.982;12.064;2023-05-10T07:29:29;14.20;99.90
12053;DHT22;6087;48.982;12.064;2023-05-10T07:31:56;14.20;99.90
12053;DHT22;6087;48.982;12.064;2023-05-10T07:34:23;14.20;99.90
12053;DHT22;6087;48.982;12.064;2023-05-10T07:36:50;14.30;99.90
12053;DHT22;6087;48.982;12.064;2023-05-10T07:39:17;14.30;99.90
12053;DHT22;6087;48.982;12.064;2023-05-10T07:41:45;14.40;99.90
12053;DHT22;6087;48.982;12.064;2023-05-10T07:44:12;14.40;99.90
12053;DHT22;6087;48.982;12.064;2023-05-10T07:46:38;14.40;99.90
12053;DHT22;6087;48.982;12.064;2023-05-10T07:49:05;14.40;99.90
12053;DHT22;6087;48.982;12.064;2023-05-10T07:51:32;14.50;99.90
12053;DHT22;6087;48.982;12.064;2023-05-10T07:53:59;14.50;99.90
12053;DHT22;6087;48.982;12.064;2023-05-10T07:56:29;14.50;99.90
12053;DHT22;6087;48.982;12.064;2023-05-10T07:58:58;14.50;99.90
12053;DHT22;6087;48.982;12.064;2023-05-10T08:01:26;14.50;99.90
12053;DHT22;6087;48.982;12.064;2023-05-10T08:03:53;14.50;99.90
12053;DHT22;6087;48.982;12.064;2023-05-10T08:06:20;14.50;99.90
12053;DHT22;6087;48.982;12.064;2023-05-10T08:08:48;14.50;99.90
12053;DHT22;6087;48.982;12.064;2023-05-10T08:11:16;14.50;99.90
12053;DHT22;6087;48.982;12.064;2023-05-10T08:13:43;14.50;99.90
12053;DHT22;6087;48.982;12.064;2023-05-10T08:16:11;14.60;99.90
12053;DHT22;6087;48.982;12.064;2023-05-10T08:18:39;14.60;99.90
12053;DHT22;6087;48.982;12.064;2023-05-10T08:21:06;14.70;99.90
12053;DHT22;6087;48.982;12.064;2023-05-10T08:23:33;14.60;99.90
12053;DHT22;6087;48.982;12.064;2023-05-10T08:26:00;14.60;99.90
12053;DHT22;6087;48.982;12.064;2023-05-10T08:28:27;14.70;99.90
12053;DHT22;6087;48.982;12.064;2023-05-10T08:30:54;14.70;99.90
12053;DHT22;6087;48.982;12.064;2023-05-10T08:33:22;14.70;99.90
12053;DHT22;6087;48.982;12.064;2023-05-10T08:35:49;14.80;99.90
12053;DHT22;6087;48.982;12.064;2023-05-10T08:38:16;14.80;99.90
12053;DHT22;6087;48.982;12.064;2023-05-10T08:40:43;14.80;99.90
12053;DHT22;6087;48.982;12.064;2023-05-10T08:43:12;14.70;99.90
12053;DHT22;6087;48.982;12.064;2023-05-10T08:45:46;14.70;99.90
12053;DHT22;6087;48.982;12.064;2023-05-10T08:48:14;14.80;99.90
12053;DHT22;6087;48.982;12.064;2023-05-10T08:50:42;14.70;99.90
12053;DHT22;6087;48.982;12.064;2023-05-10T08:53:10;14.80;99.90
12053;DHT22;6087;48.982;12.064;2023-05-10T08:55:38;14.80;99.90
12053;DHT22;6087;48.982;12.064;2023-05-10T08:58:06;14.70;99.90
12053;DHT22;6087;48.982;12.064;2023-05-10T09:00:34;14.70;99.90
12053;DHT22;6087;48.982;12.064;2023-05-10T09:03:02;14.70;99.90
12053;DHT22;6087;48.982;12.064;2023-05-10T09:05:29;14.70;99.90
12053;DHT22;6087;48.982;12.064;2023-05-10T09:07:57;14.80;99.90
12053;DHT22;6087;48.982;12.064;2023-05-10T09:10:26;14.80;99.90
12053;DHT22;6087;48.982;12.064;2023-05-10T09:12:56;14.80;99.90
12053;DHT22;6087;48.982;12.064;2023-05-10T09:15:23;14.80;99.90
12053;DHT22;6087;48.982;12.064;2023-05-10T09:17:50;14.90;99.90
12053;DHT22;6087;48.982;12.064;2023-05-10T09:20:18;14.90;99.90
12053;DHT22;6087;48.982;12.064;2023-05-10T09:22:46;15.00;99.90
12053;DHT22;6087;48.982;12.064;2023-05-10T09:25:15;15.00;99.90
12053;DHT22;6087;48.982;12.064;2023-05-10T09:27:44;15.10;99.90
12053;DHT22;6087;48.982;12.064;2023-05-10T09:30:16;15.10;99.90
12053;DHT22;6087;48.982;12.064;2023-05-10T09:32:47;15.20;99.90
12053;DHT22;6087;48.982;12.064;2023-05-10T09:35:24;15.20;99.90
12053;DHT22;6087;48.982;12.064;2023-05-10T09:37:52;15.30;99.90
12053;DHT22;6087;48.982;12.064;2023-05-10T09:40:22;15.30;99.90
12053;DHT22;6087;48.982;12.064;2023-05-10T09:42:54;15.40;99.90
12053;DHT22;6087;48.982;12.064;2023-05-10T09:45:22;15.40;99.90
12053;DHT22;6087;48.982;12.064;2023-05-10T09:47:49;15.40;99.90
12053;DHT22;6087;48.982;12.064;2023-05-10T09:50:16;15.40;99.90
12053;DHT22;6087;48.982;12.064;2023-05-10T09:52:47;15.40;99.90
12053;DHT22;6087;48.982;12.064;2023-05-10T09:55:15;15.40;99.90
12053;DHT22;6087;48.982;12.064;2023-05-10T09:57:43;15.40;99.90
12053;DHT22;6087;48.982;12.064;2023-05-10T10:00:18;15.50;99.90
12053;DHT22;6087;48.982;12.064;2023-05-10T10:02:47;15.50;99.90
12053;DHT22;6087;48.982;12.064;2023-05-10T10:05:14;15.60;99.90
12053;DHT22;6087;48.982;12.064;2023-05-10T10:07:41;15.60;99.90
12053;DHT22;6087;48.982;12.064;2023-05-10T10:10:09;15.60;99.90
12053;DHT22;6087;48.982;12.064;2023-05-10T10:12:45;15.80;99.90
12053;DHT22;6087;48.982;12.064;2023-05-10T10:15:12;15.80;99.90
12053;DHT22;6087;48.982;12.064;2023-05-10T10:17:39;15.90;99.90
12053;DHT22;6087;48.982;12.064;2023-05-10T10:20:08;16.00;98.60
12053;DHT22;6087;48.982;12.064;2023-05-10T10:22:36;16.00;97.80
12053;DHT22;6087;48.982;12.064;2023-05-10T10:25:05;16.10;96.60
12053;DHT22;6087;48.982;12.064;2023-05-10T10:27:47;16.20;97.50
12053;DHT22;6087;48.982;12.064;2023-05-10T10:30:23;16.30;91.50
12053;DHT22;6087;48.982;12.064;2023-05-10T10:33:24;16.40;99.90
12053;DHT22;6087;48.982;12.064;2023-05-10T10:35:58;16.50;88.60
12053;DHT22;6087;48.982;12.064;2023-05-10T10:38:37;16.60;85.20
12053;DHT22;6087;48.982;12.064;2023-05-10T10:41:10;16.80;93.70
12053;DHT22;6087;48.982;12.064;2023-05-10T10:43:39;16.90;92.00
12053;DHT22;6087;48.982;12.064;2023-05-10T10:46:13;17.00;89.70
12053;DHT22;6087;48.982;12.064;2023-05-10T10:48:40;17.20;86.30
12053;DHT22;6087;48.982;12.064;2023-05-10T10:51:08;17.20;81.30
12053;DHT22;6087;48.982;12.064;2023-05-10T10:53:36;17.30;86.20
12053;DHT22;6087;48.982;12.064;2023-05-10T10:56:07;17.30;85.40
12053;DHT22;6087;48.982;12.064;2023-05-10T10:58:35;17.20;81.10
12053;DHT22;6087;48.982;12.064;2023-05-10T11:01:14;17.20;81.60
12053;DHT22;6087;48.982;12.064;2023-05-10T11:04:16;17.10;78.00
12053;DHT22;6087;48.982;12.064;2023-05-10T11:06:43;17.00;78.40
12053;DHT22;6087;48.982;12.064;2023-05-10T11:09:11;17.00;78.90
12053;DHT22;6087;48.982;12.064;2023-05-10T11:11:49;17.10;81.10
12053;DHT22;6087;48.982;12.064;2023-05-10T11:14:19;17.10;81.90
12053;DHT22;6087;48.982;12.064;2023-05-10T11:16:47;17.20;82.50
12053;DHT22;6087;48.982;12.064;2023-05-10T11:19:15;17.30;78.70
12053;DHT22;6087;48.982;12.064;2023-05-10T11:21:48;17.40;77.20
12053;DHT22;6087;48.982;12.064;2023-05-10T11:24:17;17.40;79.80
12053;DHT22;6087;48.982;12.064;2023-05-10T11:26:44;17.40;70.80
12053;DHT22;6087;48.982;12.064;2023-05-10T11:29:12;17.40;72.80
12053;DHT22;6087;48.982;12.064;2023-05-10T11:31:42;17.30;67.60
12053;DHT22;6087;48.982;12.064;2023-05-10T11:34:10;17.20;68.40
12053;DHT22;6087;48.982;12.064;2023-05-10T11:36:38;17.20;68.00
12053;DHT22;6087;48.982;12.064;2023-05-10T11:39:06;17.20;70.00
12053;DHT22;6087;48.982;12.064;2023-05-10T11:41:33;17.10;71.00
12053;DHT22;6087;48.982;12.064;2023-05-10T11:44:00;17.00;73.50
12053;DHT22;6087;48.982;12.064;2023-05-10T11:46:27;17.00;76.20
12053;DHT22;6087;48.982;12.064;2023-05-10T11:48:58;17.00;77.30
12053;DHT22;6087;48.982;12.064;2023-05-10T11:51:27;17.00;78.50
12053;DHT22;6087;48.982;12.064;2023-05-10T11:53:55;17.00;78.40
12053;DHT22;6087;48.982;12.064;2023-05-10T11:56:24;17.00;77.10
12053;DHT22;6087;48.982;12.064;2023-05-10T11:58:56;17.10;78.80
12053;DHT22;6087;48.982;12.064;2023-05-10T12:01:24;17.10;77.20
12053;DHT22;6087;48.982;12.064;2023-05-10T12:03:53;17.10;75.70
12053;DHT22;6087;48.982;12.064;2023-05-10T12:06:20;17.20;75.70
12053;DHT22;6087;48.982;12.064;2023-05-10T12:08:48;17.30;74.10
12053;DHT22;6087;48.982;12.064;2023-05-10T12:11:18;17.30;68.20
12053;DHT22;6087;48.982;12.064;2023-05-10T12:13:48;17.40;68.00
12053;DHT22;6087;48.982;12.064;2023-05-10T12:16:19;17.40;67.70
12053;DHT22;6087;48.982;12.064;2023-05-10T12:18:48;17.40;69.10
12053;DHT22;6087;48.982;12.064;2023-05-10T12:21:17;17.50;65.40
12053;DHT22;6087;48.982;12.064;2023-05-10T12:23:45;17.50;62.00
12053;DHT22;6087;48.982;12.064;2023-05-10T12:26:12;17.50;63.30
12053;DHT22;6087;48.982;12.064;2023-05-10T12:28:39;17.60;63.80
12053;DHT22;6087;48.982;12.064;2023-05-10T12:31:08;17.60;65.10
12053;DHT22;6087;48.982;12.064;2023-05-10T12:33:36;17.60;62.20
12053;DHT22;6087;48.982;12.064;2023-05-10T12:36:05;17.60;61.40
12053;DHT22;6087;48.982;12.064;2023-05-10T12:38:34;17.60;62.90
12053;DHT22;6087;48.982;12.064;2023-05-10T12:41:04;17.60;62.10
12053;DHT22;6087;48.982;12.064;2023-05-10T12:43:32;17.70;63.10
12053;DHT22;6087;48.982;12.064;2023-05-10T12:46:03;17.60;62.40
12053;DHT22;6087;48.982;12.064;2023-05-10T12:48:32;17.60;62.20
12053;DHT22;6087;48.982;12.064;2023-05-10T12:50:59;17.50;62.20
12053;DHT22;6087;48.982;12.064;2023-05-10T12:53:26;17.40;64.00
12053;DHT22;6087;48.982;12.064;2023-05-10T12:55:53;17.30;63.50
12053;DHT22;6087;48.982;12.064;2023-05-10T12:58:20;17.20;62.20
12053;DHT22;6087;48.982;12.064;2023-05-10T13:00:47;17.10;61.10
12053;DHT22;6087;48.982;12.064;2023-05-10T13:03:14;17.00;63.10
12053;DHT22;6087;48.982;12.064;2023-05-10T13:05:48;16.80;66.90
12053;DHT22;6087;48.982;12.064;2023-05-10T13:08:15;16.80;67.90
12053;DHT22;6087;48.982;12.064;2023-05-10T13:10:44;16.70;70.80
12053;DHT22;6087;48.982;12.064;2023-05-10T13:13:11;16.60;77.10
12053;DHT22;6087;48.982;12.064;2023-05-10T13:15:47;16.50;80.40
12053;DHT22;6087;48.982;12.064;2023-05-10T13:18:13;16.40;89.20
12053;DHT22;6087;48.982;12.064;2023-05-10T13:20:40;16.40;91.90
12053;DHT22;6087;48.982;12.064;2023-05-10T13:23:11;16.30;93.50
12053;DHT22;6087;48.982;12.064;2023-05-10T13:25:38;16.30;95.70
12053;DHT22;6087;48.982;12.064;2023-05-10T13:28:05;16.20;95.60
12053;DHT22;6087;48.982;12.064;2023-05-10T13:30:31;16.10;97.00
12053;DHT22;6087;48.982;12.064;2023-05-10T13:32:58;16.10;97.50
12053;DHT22;6087;48.982;12.064;2023-05-10T13:35:25;16.10;99.90
12053;DHT22;6087;48.982;12.064;2023-05-10T13:37:52;16.10;99.70
12053;DHT22;6087;48.982;12.064;2023-05-10T13:40:23;16.00;99.40
12053;DHT22;6087;48.982;12.064;2023-05-10T13:42:50;16.00;99.80
12053;DHT22;6087;48.982;12.064;2023-05-10T13:45:18;16.00;99.90
12053;DHT22;6087;48.982;12.064;2023-05-10T13:47:45;15.90;98.40
12053;DHT22;6087;48.982;12.064;2023-05-10T13:50:12;15.90;98.90
12053;DHT22;6087;48.982;12.064;2023-05-10T13:52:39;15.90;99.90
12053;DHT22;6087;48.982;12.064;2023-05-10T13:55:06;15.90;99.90
12053;DHT22;6087;48.982;12.064;2023-05-10T13:57:35;15.90;99.80
12053;DHT22;6087;48.982;12.064;2023-05-10T14:00:03;15.90;99.90
12053;DHT22;6087;48.982;12.064;2023-05-10T14:02:30;15.90;98.30
12053;DHT22;6087;48.982;12.064;2023-05-10T14:04:59;15.90;99.20
12053;DHT22;6087;48.982;12.064;2023-05-10T14:07:26;15.90;99.70
12053;DHT22;6087;48.982;12.064;2023-05-10T14:09:53;15.90;99.90
12053;DHT22;6087;48.982;12.064;2023-05-10T14:12:20;15.90;99.90
12053;DHT22;6087;48.982;12.064;2023-05-10T14:14:48;15.80;99.90
12053;DHT22;6087;48.982;12.064;2023-05-10T14:17:15;15.80;99.90
12053;DHT22;6087;48.982;12.064;2023-05-10T14:19:42;15.80;99.90
12053;DHT22;6087;48.982;12.064;2023-05-10T14:22:09;15.80;99.90
12053;DHT22;6087;48.982;12.064;2023-05-10T14:24:37;15.70;99.90
12053;DHT22;6087;48.982;12.064;2023-05-10T14:27:07;15.70;99.90
12053;DHT22;6087;48.982;12.064;2023-05-10T14:29:34;15.70;99.90
12053;DHT22;6087;48.982;12.064;2023-05-10T14:32:03;15.70;99.90
12053;DHT22;6087;48.982;12.064;2023-05-10T14:34:29;15.70;99.90
12053;DHT22;6087;48.982;12.064;2023-05-10T14:36:56;15.70;99.90
12053;DHT22;6087;48.982;12.064;2023-05-10T14:39:23;15.70;99.90
12053;DHT22;6087;48.982;12.064;2023-05-10T14:41:50;15.70;99.90
12053;DHT22;6087;48.982;12.064;2023-05-10T14:44:18;15.70;99.90
12053;DHT22;6087;48.982;12.064;2023-05-10T14:46:45;15.70;99.90
12053;DHT22;6087;48.982;12.064;2023-05-10T14:49:14;15.70;99.90
12053;DHT22;6087;48.982;12.064;2023-05-10T14:51:41;15.60;99.90
12053;DHT22;6087;48.982;12.064;2023-05-10T14:54:07;15.60;99.90
12053;DHT22;6087;48.982;12.064;2023-05-10T14:56:34;15.60;99.90
12053;DHT22;6087;48.982;12.064;2023-05-10T14:59:02;15.60;99.90
12053;DHT22;6087;48.982;12.064;2023-05-10T15:01:29;15.60;99.90
12053;DHT22;6087;48.982;12.064;2023-05-10T15:03:57;15.60;99.90
12053;DHT22;6087;48.982;12.064;2023-05-10T15:06:30;15.60;99.90
12053;DHT22;6087;48.982;12.064;2023-05-10T15:09:01;15.60;99.90
12053;DHT22;6087;48.982;12.064;2023-05-10T15:11:29;15.50;99.90
12053;DHT22;6087;48.982;12.064;2023-05-10T15:13:56;15.50;99.90
12053;DHT22;6087;48.982;12.064;2023-05-10T15:16:23;15.50;99.90
12053;DHT22;6087;48.982;12.064;2023-05-10T15:18:50;15.50;99.90
12053;DHT22;6087;48.982;12.064;2023-05-10T15:21:17;15.40;99.90
12053;DHT22;6087;48.982;12.064;2023-05-10T15:23:45;15.40;99.90
12053;DHT22;6087;48.982;12.064;2023-05-10T15:26:12;15.40;99.90
12053;DHT22;6087;48.982;12.064;2023-05-10T15:28:39;15.40;99.90
12053;DHT22;6087;48.982;12.064;2023-05-10T15:31:05;15.30;99.90
12053;DHT22;6087;48.982;12.064;2023-05-10T15:33:32;15.30;99.90
12053;DHT22;6087;48.982;12.064;2023-05-10T15:35:59;15.30;99.90
12053;DHT22;6087;48.982;12.064;2023-05-10T15:38:26;15.20;99.90
12053;DHT22;6087;48.982;12.064;2023-05-10T15:40:56;15.10;99.90
12053;DHT22;6087;48.982;12.064;2023-05-10T15:43:23;15.10;99.90